Terminal Aerodrome Forecast
Issued by NWS

Home | Current Version | Previous Version | Text Only | Print | Product List | Glossary On
Versions: 1 2 3 4 5 6 7 8 9 10 11 12 13 14 15 16 17 18 19 20 21 22 23 24 25 26 27 28 29 30 31 32 33 34 35 36 37 38 39 40 41 42 43 44
000
FTUS45 KBOU 251739
TAFAPA
TAF
KAPA 251739Z 2518/2618 15008KT P6SM FEW070 BKN140 BKN200
     FM251900 05010KT P6SM VCSH SCT070 BKN140
     FM252100 30011KT P6SM VCTS SCT070CB BKN140
      TEMPO 2521/2601 VRB20G30KT -TSRA BKN060CB
     FM260100 03009KT P6SM VCSH SCT060 BKN100
     FM260300 06012KT P6SM -SHRA SCT025 BKN040
     FM260900 06009KT 1SM -DZ BR SCT004 OVC008
      TEMPO 2611/2614 1/4SM -DZ FG VV002
     FM261400 11012KT 2SM -SHRA BR SCT005 OVC008=

USA.gov is the U.S. government's official web portal to all federal, state and local government web resources and services.